createdAt,value
2022-07-31T00:00:19.567Z,19.29
2022-07-31T00:01:19.728Z,19.29
2022-07-31T00:02:19.889Z,19.27
2022-07-31T00:03:20.127Z,19.29
2022-07-31T00:04:20.279Z,19.23
2022-07-31T00:05:20.432Z,19.26
2022-07-31T00:06:20.597Z,19.22
2022-07-31T00:07:20.749Z,19.22
2022-07-31T00:08:20.947Z,19.24
2022-07-31T00:09:52.387Z,19.23
2022-07-31T00:10:22.232Z,19.20
2022-07-31T00:11:21.395Z,19.16
2022-07-31T00:12:21.561Z,19.15
2022-07-31T00:13:56.361Z,19.15
2022-07-31T00:14:22.871Z,19.09
2022-07-31T00:15:22.036Z,19.09
2022-07-31T00:16:22.198Z,19.08
2022-07-31T00:17:22.359Z,19.08
2022-07-31T00:18:22.542Z,19.05
2022-07-31T00:19:22.704Z,19.08
2022-07-31T00:20:22.884Z,19.09
2022-07-31T00:21:23.045Z,19.08
2022-07-31T00:22:23.213Z,19.12
2022-07-31T00:23:23.397Z,19.12
2022-07-31T00:24:23.556Z,19.11
2022-07-31T00:25:23.716Z,19.09
2022-07-31T00:26:23.880Z,19.12
2022-07-31T00:27:24.037Z,19.12
2022-07-31T00:28:24.225Z,19.15
2022-07-31T00:29:24.383Z,19.16
2022-07-31T00:30:24.539Z,19.12
2022-07-31T00:31:24.695Z,19.09
2022-07-31T00:32:24.856Z,19.05
2022-07-31T00:33:25.090Z,19.04
2022-07-31T00:34:25.136Z,19.00
2022-07-31T00:35:25.295Z,18.97
2022-07-31T00:36:29.019Z,18.92
2022-07-31T00:37:26.568Z,18.86
2022-07-31T00:38:27.605Z,18.81
2022-07-31T00:39:25.915Z,18.78
2022-07-31T00:40:26.070Z,18.78
2022-07-31T00:41:26.234Z,18.76
2022-07-31T00:42:26.385Z,18.78
2022-07-31T00:43:27.418Z,18.79
2022-07-31T00:44:26.717Z,18.78
2022-07-31T00:45:29.032Z,18.78
2022-07-31T00:46:27.003Z,18.76
2022-07-31T00:47:27.164Z,18.76
2022-07-31T00:48:27.643Z,18.78
2022-07-31T00:49:27.529Z,18.82
2022-07-31T00:50:28.785Z,18.81
2022-07-31T00:51:27.836Z,18.79
2022-07-31T00:52:27.992Z,18.78
2022-07-31T00:53:28.172Z,18.76
2022-07-31T00:54:28.333Z,18.76
2022-07-31T00:55:28.492Z,18.73
2022-07-31T00:56:28.654Z,18.67
2022-07-31T00:57:28.814Z,18.64
2022-07-31T00:58:28.993Z,18.58
2022-07-31T00:59:29.147Z,18.57
2022-07-31T01:00:29.445Z,18.53
2022-07-31T01:01:29.557Z,18.53
2022-07-31T01:02:29.619Z,18.53
2022-07-31T01:03:29.793Z,18.52
2022-07-31T01:04:31.373Z,18.46
2022-07-31T01:05:30.092Z,18.37
2022-07-31T01:06:30.252Z,18.33
2022-07-31T01:07:30.422Z,18.34
2022-07-31T01:08:30.606Z,18.36
2022-07-31T01:09:30.766Z,18.42
2022-07-31T01:10:30.939Z,18.42
2022-07-31T01:11:31.091Z,18.45
2022-07-31T01:12:31.227Z,18.45
2022-07-31T01:13:31.412Z,18.45
2022-07-31T01:14:31.581Z,18.42
2022-07-31T01:15:31.745Z,18.42
2022-07-31T01:16:31.915Z,18.42
2022-07-31T01:17:32.092Z,18.41
2022-07-31T01:18:32.267Z,18.48
2022-07-31T01:19:42.382Z,18.55
2022-07-31T01:20:33.554Z,18.55
2022-07-31T01:21:32.711Z,18.55
2022-07-31T01:22:35.126Z,18.57
2022-07-31T01:23:33.016Z,18.55
2022-07-31T01:24:33.181Z,18.55
2022-07-31T01:25:33.352Z,18.53
2022-07-31T01:26:33.534Z,18.53
2022-07-31T01:27:33.706Z,18.52
2022-07-31T01:28:34.842Z,18.51
2022-07-31T01:29:34.001Z,18.45
2022-07-31T01:30:34.174Z,18.46
2022-07-31T01:31:34.342Z,18.45
2022-07-31T01:32:34.513Z,18.48
2022-07-31T01:33:34.680Z,18.57
2022-07-31T01:34:34.833Z,18.51
2022-07-31T01:35:35.003Z,18.46
2022-07-31T01:36:35.434Z,18.37
2022-07-31T01:37:35.291Z,18.31
2022-07-31T01:38:35.459Z,18.28
2022-07-31T01:39:35.649Z,18.27
2022-07-31T01:40:35.799Z,18.26
2022-07-31T01:41:35.975Z,18.23
2022-07-31T01:42:36.138Z,18.23
2022-07-31T01:43:36.306Z,18.19
2022-07-31T01:44:36.477Z,18.18
2022-07-31T01:45:36.642Z,18.18
2022-07-31T01:46:37.414Z,18.18
2022-07-31T01:47:37.927Z,18.15
2022-07-31T01:48:37.087Z,18.13
2022-07-31T01:49:37.262Z,18.12
2022-07-31T01:50:43.768Z,18.13
2022-07-31T01:51:38.547Z,18.12
2022-07-31T01:52:37.710Z,18.12
2022-07-31T01:53:37.865Z,18.13
2022-07-31T01:54:38.049Z,18.13
2022-07-31T01:55:56.354Z,18.13
2022-07-31T01:56:39.339Z,18.12
2022-07-31T01:57:38.502Z,18.08
2022-07-31T01:58:38.699Z,18.06
2022-07-31T01:59:38.874Z,18.03
2022-07-31T02:00:39.146Z,18.00
2022-07-31T02:01:39.280Z,17.93
2022-07-31T02:02:40.403Z,17.93
2022-07-31T02:03:43.468Z,17.90
2022-07-31T02:04:40.716Z,17.87
2022-07-31T02:05:39.863Z,17.87
2022-07-31T02:06:40.036Z,17.86
2022-07-31T02:07:40.205Z,17.86
2022-07-31T02:08:40.368Z,17.84
2022-07-31T02:09:53.882Z,17.86
2022-07-31T02:10:41.651Z,17.82
2022-07-31T02:11:53.715Z,17.82
2022-07-31T02:12:41.940Z,17.82
2022-07-31T02:13:41.108Z,17.84
2022-07-31T02:14:41.341Z,17.86
2022-07-31T02:15:41.521Z,17.79
2022-07-31T02:16:41.690Z,17.79
2022-07-31T02:17:41.857Z,17.78
2022-07-31T02:18:42.026Z,17.75
2022-07-31T02:19:55.406Z,17.76
2022-07-31T02:20:43.352Z,17.75
2022-07-31T02:21:42.520Z,17.75
2022-07-31T02:22:42.693Z,17.73
2022-07-31T02:23:42.856Z,17.66
2022-07-31T02:24:43.056Z,17.65
2022-07-31T02:25:43.226Z,17.66
2022-07-31T02:26:43.394Z,17.63
2022-07-31T02:27:57.994Z,17.60
2022-07-31T02:28:44.687Z,17.54
2022-07-31T02:29:43.859Z,17.53
2022-07-31T02:30:44.054Z,17.50
2022-07-31T02:31:44.217Z,17.49
2022-07-31T02:32:44.381Z,17.49
2022-07-31T02:33:44.552Z,17.49
2022-07-31T02:34:44.734Z,17.46
2022-07-31T02:35:45.204Z,17.46
2022-07-31T02:36:45.056Z,17.47
2022-07-31T02:37:45.225Z,17.47
2022-07-31T02:38:45.390Z,17.46
2022-07-31T02:39:45.568Z,17.46
2022-07-31T02:40:45.736Z,17.46
2022-07-31T02:41:45.896Z,17.47
2022-07-31T02:42:46.065Z,17.46
2022-07-31T02:43:46.229Z,17.47
2022-07-31T02:44:46.421Z,17.46
2022-07-31T02:45:46.589Z,17.47
2022-07-31T02:46:46.751Z,17.46
2022-07-31T02:47:46.903Z,17.46
2022-07-31T02:48:47.134Z,17.47
2022-07-31T02:49:47.230Z,17.46
2022-07-31T02:50:47.395Z,17.49
2022-07-31T02:51:47.561Z,17.49
2022-07-31T02:52:47.714Z,17.49
2022-07-31T02:53:47.874Z,17.49
2022-07-31T02:54:48.076Z,17.47
2022-07-31T02:55:48.244Z,17.44
2022-07-31T02:56:48.414Z,17.44
2022-07-31T02:57:48.670Z,17.42
2022-07-31T02:58:48.701Z,17.44
2022-07-31T02:59:48.883Z,17.47
2022-07-31T03:00:49.080Z,17.47
2022-07-31T03:01:49.249Z,17.47
2022-07-31T03:02:49.403Z,17.44
2022-07-31T03:03:49.569Z,17.41
2022-07-31T03:04:49.753Z,17.38
2022-07-31T03:05:49.916Z,17.37
2022-07-31T03:06:50.081Z,17.37
2022-07-31T03:07:50.254Z,17.39
2022-07-31T03:08:50.412Z,17.39
2022-07-31T03:09:50.594Z,17.42
2022-07-31T03:10:50.762Z,17.42
2022-07-31T03:11:50.927Z,17.42
2022-07-31T03:12:51.102Z,17.46
2022-07-31T03:13:51.262Z,17.42
2022-07-31T03:14:51.461Z,17.42
2022-07-31T03:15:51.630Z,17.39
2022-07-31T03:16:51.800Z,17.38
2022-07-31T03:17:51.972Z,17.37
2022-07-31T03:18:52.109Z,17.35
2022-07-31T03:19:52.290Z,17.35
2022-07-31T03:20:52.466Z,17.35
2022-07-31T03:21:52.615Z,17.35
2022-07-31T03:22:52.790Z,17.34
2022-07-31T03:23:59.969Z,17.31
2022-07-31T03:24:53.135Z,17.28
2022-07-31T03:25:56.056Z,17.28
2022-07-31T03:26:56.251Z,17.24
2022-07-31T03:27:56.704Z,17.24
2022-07-31T03:28:53.971Z,17.24
2022-07-31T03:29:54.166Z,17.23
2022-07-31T03:30:56.058Z,17.20
2022-07-31T03:31:54.492Z,17.22
2022-07-31T03:32:54.655Z,17.23
2022-07-31T03:33:54.812Z,17.23
2022-07-31T03:34:54.998Z,17.22
2022-07-31T03:35:55.167Z,17.20
2022-07-31T03:36:55.345Z,17.19
2022-07-31T03:37:55.519Z,17.16
2022-07-31T03:38:55.704Z,17.14
2022-07-31T03:39:55.899Z,17.14
2022-07-31T03:40:56.074Z,17.13
2022-07-31T03:41:56.246Z,17.13
2022-07-31T03:42:56.429Z,17.14
2022-07-31T03:43:56.611Z,17.14
2022-07-31T03:44:56.793Z,17.10
2022-07-31T03:45:56.963Z,17.13
2022-07-31T03:46:57.132Z,17.13
2022-07-31T03:47:57.309Z,17.10
2022-07-31T03:48:57.530Z,17.09
2022-07-31T03:49:57.703Z,17.09
2022-07-31T03:50:57.881Z,17.05
2022-07-31T03:51:58.052Z,17.04
2022-07-31T03:52:58.224Z,17.09
2022-07-31T03:53:58.398Z,17.09
2022-07-31T03:54:58.591Z,17.10
2022-07-31T03:55:58.755Z,17.09
2022-07-31T03:56:58.931Z,17.12
2022-07-31T03:57:59.096Z,17.16
2022-07-31T03:58:59.301Z,17.17
2022-07-31T03:59:59.482Z,17.20
2022-07-31T04:00:59.646Z,17.24
2022-07-31T04:01:59.810Z,17.28
2022-07-31T04:02:59.990Z,17.27
2022-07-31T04:04:00.153Z,17.30
2022-07-31T04:05:00.353Z,17.28
2022-07-31T04:06:00.521Z,17.28
2022-07-31T04:07:00.703Z,17.28
2022-07-31T04:08:00.869Z,17.30
2022-07-31T04:09:01.058Z,17.31
2022-07-31T04:10:02.206Z,17.32
2022-07-31T04:11:01.381Z,17.32
2022-07-31T04:12:02.050Z,17.31
2022-07-31T04:13:01.743Z,17.31
2022-07-31T04:14:01.912Z,17.34
2022-07-31T04:15:02.079Z,17.35
2022-07-31T04:16:02.262Z,17.35
2022-07-31T04:17:02.429Z,17.37
2022-07-31T04:18:02.589Z,17.37
2022-07-31T04:19:03.156Z,17.37
2022-07-31T04:20:03.647Z,17.39
2022-07-31T04:21:03.203Z,17.38
2022-07-31T04:22:03.856Z,17.35
2022-07-31T04:23:03.551Z,17.35
2022-07-31T04:24:03.730Z,17.35
2022-07-31T04:25:03.899Z,17.35
2022-07-31T04:26:04.088Z,17.37
2022-07-31T04:27:07.054Z,17.39
2022-07-31T04:28:05.390Z,17.41
2022-07-31T04:29:04.555Z,17.44
2022-07-31T04:30:04.740Z,17.46
2022-07-31T04:31:04.928Z,17.47
2022-07-31T04:32:05.445Z,17.49
2022-07-31T04:33:05.231Z,17.52
2022-07-31T04:34:05.399Z,17.52
2022-07-31T04:35:05.576Z,17.56
2022-07-31T04:36:05.768Z,17.60
2022-07-31T04:37:06.898Z,17.66
2022-07-31T04:38:06.068Z,17.68
2022-07-31T04:39:06.244Z,17.73
2022-07-31T04:40:06.420Z,17.76
2022-07-31T04:41:06.635Z,17.82
2022-07-31T04:42:10.874Z,17.86
2022-07-31T04:43:06.928Z,17.87
2022-07-31T04:44:07.100Z,17.93
2022-07-31T04:45:07.269Z,17.93
2022-07-31T04:46:17.480Z,17.95
2022-07-31T04:47:08.578Z,17.98
2022-07-31T04:48:07.751Z,18.03
2022-07-31T04:49:07.993Z,18.09
2022-07-31T04:50:08.062Z,18.13
2022-07-31T04:51:08.248Z,18.15
2022-07-31T04:52:09.367Z,18.16
2022-07-31T04:53:08.536Z,18.16
2022-07-31T04:54:08.707Z,18.16
2022-07-31T04:55:08.877Z,18.19
2022-07-31T04:56:09.067Z,18.26
2022-07-31T04:57:09.244Z,18.28
2022-07-31T04:58:09.416Z,18.34
2022-07-31T04:59:09.582Z,18.37
2022-07-31T05:00:09.779Z,18.39
2022-07-31T05:01:09.980Z,18.36
2022-07-31T05:02:10.190Z,18.36
2022-07-31T05:03:10.300Z,18.37
2022-07-31T05:04:10.467Z,18.41
2022-07-31T05:05:10.637Z,18.45
2022-07-31T05:06:10.816Z,18.48
2022-07-31T05:07:11.027Z,18.49
2022-07-31T05:08:11.198Z,18.51
2022-07-31T05:09:15.105Z,18.52
2022-07-31T05:10:12.484Z,18.57
2022-07-31T05:11:11.662Z,18.60
2022-07-31T05:12:11.835Z,18.61
2022-07-31T05:13:11.996Z,18.63
2022-07-31T05:14:12.317Z,18.66
2022-07-31T05:15:12.366Z,18.68
2022-07-31T05:16:12.551Z,18.70
2022-07-31T05:17:12.706Z,18.74
2022-07-31T05:18:12.869Z,18.79
2022-07-31T05:19:13.653Z,18.83
2022-07-31T05:20:13.207Z,18.89
2022-07-31T05:21:13.374Z,18.92
2022-07-31T05:22:13.546Z,18.98
2022-07-31T05:23:13.694Z,19.04
2022-07-31T05:24:13.854Z,19.08
2022-07-31T05:25:14.015Z,19.09
2022-07-31T05:26:14.200Z,19.16
2022-07-31T05:27:14.348Z,19.20
2022-07-31T05:28:14.530Z,19.24
2022-07-31T05:29:14.690Z,19.24
2022-07-31T05:30:14.864Z,19.24
2022-07-31T05:31:15.030Z,19.27
2022-07-31T05:32:15.604Z,19.29
2022-07-31T05:33:15.379Z,19.32
2022-07-31T05:34:15.522Z,19.37
2022-07-31T05:35:15.682Z,19.42
2022-07-31T05:36:15.853Z,19.48
2022-07-31T05:37:16.006Z,19.55
2022-07-31T05:38:16.167Z,19.57
2022-07-31T05:39:16.327Z,19.59
2022-07-31T05:40:16.483Z,19.64
2022-07-31T05:41:16.667Z,19.57
2022-07-31T05:42:16.825Z,19.53
2022-07-31T05:43:16.982Z,19.53
2022-07-31T05:44:17.140Z,19.62
2022-07-31T05:45:17.313Z,19.64
2022-07-31T05:46:17.505Z,19.63
2022-07-31T05:47:17.658Z,19.62
2022-07-31T05:48:17.818Z,19.70
2022-07-31T05:49:18.112Z,19.75
2022-07-31T05:50:18.089Z,19.74
2022-07-31T05:51:18.256Z,19.77
2022-07-31T05:52:18.454Z,19.71
2022-07-31T05:53:18.625Z,19.72
2022-07-31T05:54:18.774Z,19.71
2022-07-31T05:55:18.923Z,19.71
2022-07-31T05:56:19.093Z,19.74
2022-07-31T05:57:33.737Z,19.77
2022-07-31T05:58:20.364Z,19.78
2022-07-31T05:59:19.510Z,19.82
2022-07-31T06:00:19.673Z,19.87
2022-07-31T06:01:19.906Z,19.92
2022-07-31T06:02:20.040Z,19.96
2022-07-31T06:03:20.212Z,19.96
2022-07-31T06:04:20.373Z,20.07
2022-07-31T06:05:20.522Z,20.11
2022-07-31T06:06:20.714Z,20.19
2022-07-31T06:07:20.886Z,20.36
2022-07-31T06:08:21.052Z,20.46
2022-07-31T06:09:21.197Z,20.53
2022-07-31T06:10:21.357Z,20.66
2022-07-31T06:11:21.521Z,20.67
2022-07-31T06:12:21.683Z,20.63
2022-07-31T06:13:21.850Z,20.66
2022-07-31T06:14:21.998Z,20.68
2022-07-31T06:15:22.151Z,20.75
2022-07-31T06:16:22.342Z,20.93
2022-07-31T06:17:22.523Z,21.05
2022-07-31T06:18:22.665Z,21.20
2022-07-31T06:19:24.602Z,21.30
2022-07-31T06:20:22.980Z,21.30
2022-07-31T06:21:56.126Z,21.29
2022-07-31T06:22:57.051Z,21.33
2022-07-31T06:23:56.426Z,21.48
2022-07-31T06:24:56.582Z,21.65
2022-07-31T06:25:56.750Z,21.75
2022-07-31T06:26:56.920Z,21.88
2022-07-31T06:27:59.389Z,22.00
2022-07-31T06:28:57.292Z,22.15
2022-07-31T06:29:57.462Z,22.22
2022-07-31T06:30:57.622Z,22.23
2022-07-31T06:31:57.790Z,22.33
2022-07-31T06:32:57.947Z,22.46
2022-07-31T06:33:58.100Z,22.56
2022-07-31T06:34:58.243Z,22.70
2022-07-31T06:35:58.411Z,22.80
2022-07-31T06:36:58.599Z,22.95
2022-07-31T06:37:58.748Z,23.01
2022-07-31T06:38:58.922Z,23.08
2022-07-31T06:39:59.071Z,23.21
2022-07-31T06:40:59.301Z,23.26
2022-07-31T06:41:59.475Z,23.28
2022-07-31T06:43:01.725Z,23.40
2022-07-31T06:44:00.714Z,23.48
2022-07-31T06:44:59.851Z,23.58
2022-07-31T06:45:59.996Z,23.64
2022-07-31T06:47:00.152Z,23.71
2022-07-31T06:48:00.306Z,23.84
2022-07-31T06:49:01.382Z,24.03
2022-07-31T06:50:00.632Z,24.28
2022-07-31T06:51:27.916Z,24.40
2022-07-31T06:52:02.069Z,24.29
2022-07-31T06:53:00.980Z,24.36
2022-07-31T06:54:01.150Z,24.53
2022-07-31T06:55:01.295Z,24.71
2022-07-31T06:56:01.431Z,24.66
2022-07-31T06:57:01.572Z,24.71
2022-07-31T06:58:01.719Z,24.85
2022-07-31T06:59:01.858Z,24.78
2022-07-31T07:00:06.911Z,24.86
2022-07-31T07:01:03.123Z,24.88
2022-07-31T07:02:02.475Z,25.07
2022-07-31T07:03:02.322Z,25.33
2022-07-31T07:04:02.451Z,25.73
2022-07-31T07:05:06.481Z,25.86
2022-07-31T07:06:02.749Z,25.52
2022-07-31T07:07:02.888Z,25.62
2022-07-31T07:08:03.046Z,25.85
2022-07-31T07:09:03.202Z,25.89
2022-07-31T07:10:03.354Z,25.99
2022-07-31T07:11:03.477Z,25.92
2022-07-31T07:12:03.758Z,26.24
2022-07-31T07:13:03.766Z,26.42
2022-07-31T07:14:03.900Z,26.49
2022-07-31T07:15:04.026Z,26.39
2022-07-31T07:16:04.160Z,26.67
2022-07-31T07:17:04.277Z,26.88
2022-07-31T07:18:04.440Z,26.81
2022-07-31T07:19:04.570Z,26.64
2022-07-31T07:20:04.697Z,26.86
2022-07-31T07:21:04.822Z,27.28
2022-07-31T07:22:05.336Z,27.15
2022-07-31T07:23:05.090Z,26.86
2022-07-31T07:24:05.211Z,26.55
2022-07-31T07:25:05.335Z,26.48
2022-07-31T07:26:05.451Z,26.63
2022-07-31T07:27:05.569Z,26.71
2022-07-31T07:28:05.722Z,26.56
2022-07-31T07:29:05.843Z,27.01
2022-07-31T07:30:05.987Z,27.68
2022-07-31T07:31:06.155Z,28.00
2022-07-31T07:32:06.675Z,28.40
2022-07-31T07:33:06.389Z,28.53
2022-07-31T07:34:06.511Z,28.35
2022-07-31T07:35:06.637Z,28.40
2022-07-31T07:36:06.762Z,28.64
2022-07-31T07:37:06.881Z,28.67
2022-07-31T07:38:07.035Z,29.10
2022-07-31T07:39:07.150Z,29.39
2022-07-31T07:40:07.272Z,29.69
2022-07-31T07:41:07.386Z,29.73
2022-07-31T07:42:07.707Z,29.73
2022-07-31T07:43:07.585Z,29.79
2022-07-31T07:44:07.705Z,29.79
2022-07-31T07:45:08.281Z,29.83
2022-07-31T07:46:07.911Z,29.77
2022-07-31T07:47:08.017Z,29.76
2022-07-31T07:48:08.143Z,29.98
2022-07-31T07:49:08.339Z,30.26
2022-07-31T07:50:08.290Z,30.56
2022-07-31T07:51:08.388Z,30.62
2022-07-31T07:52:08.496Z,30.51
2022-07-31T07:53:08.617Z,30.49
2022-07-31T07:54:08.701Z,30.88
2022-07-31T07:55:08.796Z,31.23
2022-07-31T07:56:08.903Z,31.54
2022-07-31T07:57:08.993Z,31.52
2022-07-31T07:58:12.040Z,31.50
2022-07-31T07:59:15.033Z,30.51
2022-07-31T08:00:10.234Z,30.16
2022-07-31T08:01:09.382Z,30.01
2022-07-31T08:02:09.343Z,30.08
2022-07-31T08:03:48.650Z,30.27
2022-07-31T08:04:10.481Z,30.48
2022-07-31T08:05:09.587Z,30.78
2022-07-31T08:06:10.035Z,31.14
2022-07-31T08:07:09.708Z,31.37
2022-07-31T08:08:09.804Z,30.88
2022-07-31T08:09:09.873Z,30.95
2022-07-31T08:10:09.960Z,30.96
2022-07-31T08:11:10.044Z,31.18
2022-07-31T08:12:10.141Z,31.23
2022-07-31T08:13:10.240Z,30.96
2022-07-31T08:14:10.313Z,31.25
2022-07-31T08:15:10.421Z,31.47
2022-07-31T08:16:10.505Z,31.44
2022-07-31T08:17:10.584Z,31.02
2022-07-31T08:18:10.694Z,31.11
2022-07-31T08:19:10.769Z,30.77
2022-07-31T08:20:10.845Z,30.65
2022-07-31T08:21:10.918Z,30.76
2022-07-31T08:22:10.991Z,30.36
2022-07-31T08:23:11.080Z,30.24
2022-07-31T08:24:12.106Z,30.40
2022-07-31T08:25:11.226Z,30.63
2022-07-31T08:26:11.523Z,30.71
2022-07-31T08:27:11.455Z,30.58
2022-07-31T08:28:14.881Z,30.10
2022-07-31T08:29:12.415Z,30.08
2022-07-31T08:30:11.486Z,30.02
2022-07-31T08:31:11.555Z,30.02
2022-07-31T08:32:11.616Z,30.31
2022-07-31T08:33:11.706Z,30.63
2022-07-31T08:34:11.766Z,31.05
2022-07-31T08:35:12.771Z,31.28
2022-07-31T08:36:11.834Z,31.20
2022-07-31T08:37:52.466Z,31.10
2022-07-31T08:38:12.916Z,31.10
2022-07-31T08:39:17.678Z,31.25
2022-07-31T08:40:12.981Z,31.42
2022-07-31T08:41:12.034Z,31.39
2022-07-31T08:42:12.098Z,31.55
2022-07-31T08:44:00.559Z,31.54
2022-07-31T08:44:13.175Z,31.22
2022-07-31T08:45:12.221Z,31.29
2022-07-31T08:46:12.284Z,30.86
2022-07-31T08:47:12.339Z,30.80
2022-07-31T08:48:12.382Z,30.99
2022-07-31T08:49:12.854Z,31.05
2022-07-31T08:50:12.457Z,31.29
2022-07-31T08:51:12.473Z,31.54
2022-07-31T08:52:12.516Z,31.73
2022-07-31T08:53:12.555Z,31.72
2022-07-31T08:54:12.609Z,31.52
2022-07-31T08:55:24.562Z,31.25
2022-07-31T08:56:13.646Z,31.39
2022-07-31T08:57:12.871Z,31.78
2022-07-31T08:58:12.754Z,31.82
2022-07-31T08:59:12.837Z,31.85
2022-07-31T09:00:12.881Z,31.57
2022-07-31T09:01:13.005Z,31.79
2022-07-31T09:02:12.973Z,31.48
2022-07-31T09:03:13.010Z,31.08
2022-07-31T09:04:13.070Z,31.15
2022-07-31T09:05:13.110Z,30.89
2022-07-31T09:06:13.145Z,31.07
2022-07-31T09:07:13.187Z,31.29
2022-07-31T09:08:14.698Z,31.52
2022-07-31T09:09:13.270Z,31.86
2022-07-31T09:10:13.313Z,32.16
2022-07-31T09:11:13.342Z,32.38
2022-07-31T09:12:13.371Z,32.44
2022-07-31T09:13:13.391Z,32.11
2022-07-31T09:14:13.430Z,31.72
2022-07-31T09:15:13.467Z,31.66
2022-07-31T09:16:13.457Z,31.86
2022-07-31T09:17:13.481Z,31.72
2022-07-31T09:18:13.501Z,31.64
2022-07-31T09:19:51.269Z,31.74
2022-07-31T09:20:14.497Z,31.72
2022-07-31T09:21:13.513Z,31.55
2022-07-31T09:22:13.524Z,31.85
2022-07-31T09:23:13.581Z,32.24
2022-07-31T09:24:13.608Z,32.63
2022-07-31T09:25:13.621Z,32.60
2022-07-31T09:26:13.634Z,32.53
2022-07-31T09:27:13.662Z,32.76
2022-07-31T09:28:13.669Z,32.88
2022-07-31T09:29:13.671Z,33.15
2022-07-31T09:30:13.691Z,33.26
2022-07-31T09:31:13.686Z,33.38
2022-07-31T09:32:13.710Z,33.31
2022-07-31T09:33:13.710Z,33.50
2022-07-31T09:34:13.722Z,33.51
2022-07-31T09:35:13.723Z,33.53
2022-07-31T09:36:13.751Z,32.91
2022-07-31T09:37:13.751Z,32.22
2022-07-31T09:38:13.765Z,31.55
2022-07-31T09:39:13.773Z,31.29
2022-07-31T09:40:13.796Z,31.20
2022-07-31T09:41:53.361Z,31.30
2022-07-31T09:42:16.245Z,31.66
2022-07-31T09:43:13.720Z,32.05
2022-07-31T09:44:13.728Z,32.23
2022-07-31T09:45:13.734Z,32.27
2022-07-31T09:46:13.734Z,32.45
2022-07-31T09:47:13.738Z,32.51
2022-07-31T09:48:19.563Z,32.75
2022-07-31T09:49:14.807Z,32.79
2022-07-31T09:50:13.761Z,32.79
2022-07-31T09:51:13.662Z,33.00
2022-07-31T09:52:13.661Z,33.39
2022-07-31T09:53:13.667Z,33.57
2022-07-31T09:54:13.664Z,33.61
2022-07-31T09:55:16.044Z,33.70
2022-07-31T09:56:13.582Z,33.48
2022-07-31T09:57:13.573Z,33.01
2022-07-31T09:58:13.575Z,33.03
2022-07-31T09:59:13.568Z,33.16
2022-07-31T10:00:17.181Z,33.17
2022-07-31T10:01:13.631Z,33.35
2022-07-31T10:02:13.514Z,33.57
2022-07-31T10:03:13.514Z,33.84
2022-07-31T10:04:13.507Z,33.72
2022-07-31T10:05:13.502Z,33.42
2022-07-31T10:06:16.353Z,32.72
2022-07-31T10:07:31.993Z,32.49
2022-07-31T10:08:14.358Z,32.64
2022-07-31T10:09:13.354Z,32.98
2022-07-31T10:10:13.365Z,33.45
2022-07-31T10:11:16.785Z,33.36
2022-07-31T10:12:16.327Z,33.40
2022-07-31T10:13:13.219Z,33.50
2022-07-31T10:14:13.221Z,33.20
2022-07-31T10:15:13.213Z,33.29
2022-07-31T10:16:13.193Z,33.67
2022-07-31T10:17:13.188Z,33.61
2022-07-31T10:18:13.164Z,33.66
2022-07-31T10:19:13.169Z,33.87
2022-07-31T10:20:13.158Z,34.03
2022-07-31T10:21:13.140Z,33.95
2022-07-31T10:22:13.121Z,34.02
2022-07-31T10:23:13.106Z,34.31
2022-07-31T10:24:13.103Z,34.22
2022-07-31T10:25:13.769Z,34.07
2022-07-31T10:26:13.093Z,33.72
2022-07-31T10:27:13.460Z,33.47
2022-07-31T10:28:13.045Z,33.16
2022-07-31T10:29:13.064Z,32.85
2022-07-31T10:30:13.072Z,32.97
2022-07-31T10:31:13.082Z,32.85
2022-07-31T10:32:13.088Z,32.86
2022-07-31T10:33:40.702Z,33.19
2022-07-31T10:34:14.070Z,33.42
2022-07-31T10:35:13.078Z,33.81
2022-07-31T10:36:13.076Z,34.31
2022-07-31T10:37:13.085Z,34.50
2022-07-31T10:38:13.091Z,34.58
2022-07-31T10:39:13.097Z,34.32
2022-07-31T10:40:13.115Z,34.00
2022-07-31T10:41:13.115Z,33.31
2022-07-31T10:42:13.113Z,33.00
2022-07-31T10:43:13.116Z,32.66
2022-07-31T10:44:13.125Z,32.45
2022-07-31T10:45:13.146Z,32.61
2022-07-31T10:46:13.155Z,32.95
2022-07-31T10:47:13.281Z,33.22
2022-07-31T10:48:13.168Z,33.03
2022-07-31T10:49:13.239Z,32.95
2022-07-31T10:50:13.154Z,32.61
2022-07-31T10:51:13.171Z,32.49
2022-07-31T10:52:13.213Z,32.17
2022-07-31T10:53:13.220Z,32.35
2022-07-31T10:54:13.281Z,32.39
2022-07-31T10:55:13.199Z,32.35
2022-07-31T10:56:13.228Z,32.07
2022-07-31T10:57:13.265Z,31.62
2022-07-31T10:58:13.317Z,31.87
2022-07-31T10:59:13.361Z,32.16
2022-07-31T11:00:13.393Z,32.56
2022-07-31T11:01:17.673Z,33.19
2022-07-31T11:02:13.430Z,33.61
2022-07-31T11:03:13.348Z,34.00
2022-07-31T11:04:13.379Z,33.72
2022-07-31T11:05:13.396Z,33.29
2022-07-31T11:06:13.407Z,33.38
2022-07-31T11:07:13.425Z,33.75
2022-07-31T11:08:13.437Z,33.82
2022-07-31T11:09:13.468Z,33.84
2022-07-31T11:10:13.468Z,33.92
2022-07-31T11:11:13.483Z,34.14
2022-07-31T11:12:13.488Z,34.47
2022-07-31T11:13:13.497Z,34.75
2022-07-31T11:14:13.519Z,34.37
2022-07-31T11:15:13.515Z,34.04
2022-07-31T11:16:13.517Z,34.00
2022-07-31T11:17:13.528Z,34.22
2022-07-31T11:18:20.837Z,34.35
2022-07-31T11:19:14.519Z,34.59
2022-07-31T11:20:13.525Z,35.07
2022-07-31T11:21:37.079Z,35.68
2022-07-31T11:22:32.194Z,36.45
2022-07-31T11:23:14.437Z,37.09
2022-07-31T11:24:13.434Z,37.61
2022-07-31T11:25:13.427Z,37.75
2022-07-31T11:26:13.404Z,37.47
2022-07-31T11:27:13.398Z,36.99
2022-07-31T11:28:13.384Z,36.43
2022-07-31T11:30:00.450Z,36.25
2022-07-31T11:30:14.406Z,36.51
2022-07-31T11:31:13.353Z,36.59
2022-07-31T11:32:13.352Z,36.18
2022-07-31T11:33:13.336Z,35.98
2022-07-31T11:34:13.341Z,35.44
2022-07-31T11:35:13.349Z,34.59
2022-07-31T11:36:13.323Z,34.18
2022-07-31T11:37:13.315Z,33.94
2022-07-31T11:38:13.312Z,34.21
2022-07-31T11:39:13.280Z,34.76
2022-07-31T11:40:13.260Z,35.30
2022-07-31T11:41:14.947Z,35.31
2022-07-31T11:42:13.223Z,34.98
2022-07-31T11:43:28.463Z,34.51
2022-07-31T11:44:14.170Z,34.58
2022-07-31T11:45:13.180Z,34.58
2022-07-31T11:46:13.190Z,34.00
2022-07-31T11:48:09.637Z,33.60
2022-07-31T11:48:14.189Z,33.29
2022-07-31T11:49:13.340Z,33.01
2022-07-31T11:50:13.261Z,32.66
2022-07-31T11:51:13.291Z,32.27
2022-07-31T11:52:30.733Z,31.69
2022-07-31T11:53:14.324Z,31.86
2022-07-31T11:54:13.373Z,32.56
2022-07-31T11:55:13.416Z,33.15
2022-07-31T11:56:13.447Z,33.73
2022-07-31T11:57:13.495Z,34.38
2022-07-31T11:58:13.523Z,35.00
2022-07-31T11:59:44.710Z,35.64
2022-07-31T12:00:28.868Z,36.26
2022-07-31T12:01:14.551Z,35.98
2022-07-31T12:02:13.600Z,35.45
2022-07-31T12:03:13.700Z,35.00
2022-07-31T12:04:13.624Z,34.83
2022-07-31T12:05:13.660Z,34.88
2022-07-31T12:06:13.682Z,34.82
2022-07-31T12:07:13.696Z,34.29
2022-07-31T12:08:13.724Z,34.47
2022-07-31T12:10:00.639Z,35.10
2022-07-31T12:10:14.745Z,35.23
2022-07-31T12:11:13.772Z,34.83
2022-07-31T12:12:13.796Z,33.97
2022-07-31T12:13:15.882Z,33.23
2022-07-31T12:14:13.825Z,32.54
2022-07-31T12:15:13.876Z,31.97
2022-07-31T12:16:13.893Z,31.44
2022-07-31T12:17:13.935Z,31.20
2022-07-31T12:18:13.920Z,30.95
2022-07-31T12:19:13.990Z,30.80
2022-07-31T12:20:25.335Z,30.48
2022-07-31T12:21:15.050Z,30.26
2022-07-31T12:22:14.114Z,30.13
2022-07-31T12:23:38.561Z,29.98
2022-07-31T12:24:15.205Z,29.96
2022-07-31T12:25:14.270Z,29.83
2022-07-31T12:26:14.340Z,29.71
2022-07-31T12:27:14.424Z,29.74
2022-07-31T12:28:14.512Z,29.65
2022-07-31T12:29:14.591Z,29.40
2022-07-31T12:30:14.667Z,29.34
2022-07-31T12:31:14.758Z,29.47
2022-07-31T12:32:14.846Z,29.47
2022-07-31T12:33:14.937Z,29.37
2022-07-31T12:34:15.028Z,29.40
2022-07-31T12:35:15.146Z,29.49
2022-07-31T12:36:15.238Z,29.62
2022-07-31T12:37:15.333Z,29.65
2022-07-31T12:38:37.841Z,30.39
2022-07-31T12:39:16.458Z,30.92
2022-07-31T12:40:15.542Z,31.37
2022-07-31T12:41:15.650Z,31.72
2022-07-31T12:42:15.726Z,31.45
2022-07-31T12:43:15.814Z,31.51
2022-07-31T12:44:21.485Z,32.04
2022-07-31T12:45:19.281Z,32.60
2022-07-31T12:46:15.949Z,33.10
2022-07-31T12:47:16.024Z,33.29
2022-07-31T12:48:16.099Z,33.00
2022-07-31T12:49:16.234Z,32.67
2022-07-31T12:52:01.579Z,32.93
2022-07-31T12:52:29.351Z,33.09
2022-07-31T12:53:29.503Z,32.98
2022-07-31T12:54:29.640Z,33.22
2022-07-31T12:55:29.834Z,33.42